Torrance, CA (90507)

12:55 PM PDT on July 01, 2015 (GMT -0700)
American Honda Motor Co., Inc. | | Change Station
CLOSE
Current Station
Personal Weather Station
Location: Torrance, CA
Elevation: 75 ft
Nearby Weather Stations

Elev 75 ft 33.84 °N, 118.31 °W | Updated 16 seconds ago

Mostly Cloudy
Mostly Cloudy
72.0 °F
Feels Like 73 °F
N
5.0
Wind Variable Wind from West
Gusts 11.0 mph

Today
High -- | Low -- °F
--% Chance of Precip.
Yesterday
High -- | Low -- °F
Precip. -- in
5:46 AM 8:08 PM
Full, 100% visible
Pressure 29.94 in
Visibility 10.0 miles
Clouds Few 6500 ft
Mostly Cloudy 16000 ft
Heat Index 73 °F
Dew Point 65 °F
Humidity 78%
Rainfall 0.00 in
Snow Depth Not available.
UV 6 out of 12
Pollen 4.40 out of 12
Air Quality Not available.
Flu Activity Not available.
METAR KTOA 011847Z 30009KT 10SM FEW065 BKN160 24/19 A2994

More Conditions Fewer Conditions

Pressure 29.94 in
Visibility 10.0 miles
Clouds Few 6500 ft
Mostly Cloudy 16000 ft
Heat Index 73 °F
Dew Point 65 °F
Humidity 78%
Rainfall 0.00 in
Snow Depth Not available.
UV 6 out of 12
Pollen 4.40 out of 12
Air Quality Not available.
Flu Activity Not available.
METAR KTOA 011847Z 30009KT 10SM FEW065 BKN160 24/19 A2994

More Conditions Fewer Conditions

10-Day Weather Forecast

×

Almanac

Astronomy

Jul. 01, 2015 Rise Set
Actual Time
Civil Twilight
Nautical Twilight
Astronomical Twilight
Moon
Length of Visible Light
Length of Day
Tomorrow will be .
, % of the Moon is Illuminated

Today's Extremes

State Highs State Lows

Community

WunderPhotos

Upload Photos

1,834,261 photos uploaded!

WunderBlogs® & News

Nearby

Air Quality

  Air Quality AQ Index Pollutant
Not available.

Snow Depth

Station Depth Elevation

Earthquake Activity

City Distance Mag. Time & Date
Minimum magnitude displayed is 2.5.

Coastal Water Temperatures

Place Temperature

Stations

Nearby Weather Stations

Station Location Temp. Windchill Dew Point Humidity Wind Precip. Elev Updated Type